Time;durP1;ratioP1;P1;durP2;ratioP2;P2;SDS_P1;SDS_P2;PMS_P1;PMS_P2;Temp;Humidity;BMP_temperature;BMP_pressure;BME280_temperature;BME280_humidity;BME280_pressure;Samples;Min_cycle;Max_cycle;Signal;HPM_P1;HPM_P2
2022/06/17 00:00:10;;;;;;;4.35;2.30;;;;;;;18.80;52.51;100185.09;342422;28;1071;-78
2022/06/17 00:00:26;;;;;;;3.65;2.20;;;;;;;18.80;53.40;100178.97;342281;28;1071;-78
2022/06/17 00:00:38;;;;;;;2.40;2.20;;;;;;;18.79;53.42;100185.13;343166;28;1675;-78
2022/06/17 00:00:53;;;;;;;4.50;2.00;;;;;;;18.79;52.82;100183.38;343366;28;1036;-78
2022/06/17 00:01:05;;;;;;;4.75;2.10;;;;;;;18.79;52.68;100179.88;343561;28;1226;-78
2022/06/17 00:01:17;;;;;;;5.07;2.15;;;;;;;18.78;53.03;100181.66;343434;28;1194;-78
2022/06/17 00:01:32;;;;;;;4.40;2.10;;;;;;;18.77;52.84;100183.47;342543;28;1739;-78
2022/06/17 00:01:44;;;;;;;5.30;2.20;;;;;;;18.80;52.84;100184.25;343410;28;1565;-78
2022/06/17 00:01:56;;;;;;;4.30;2.17;;;;;;;18.80;52.67;100182.47;342184;28;1148;-78
2022/06/17 00:02:09;;;;;;;3.28;2.00;;;;;;;18.80;52.75;100178.97;342032;28;1062;-78
2022/06/17 00:02:22;;;;;;;3.20;2.10;;;;;;;18.80;52.77;100184.25;342255;28;1201;-78
2022/06/17 00:02:34;;;;;;;3.65;2.30;;;;;;;18.78;53.26;100184.28;341074;29;1378;-78
2022/06/17 00:02:46;;;;;;;3.47;2.30;;;;;;;18.79;53.30;100187.78;341821;28;1396;-78
2022/06/17 00:02:58;;;;;;;3.47;2.20;;;;;;;18.77;53.73;100180.81;342002;28;2246;-78
2022/06/17 00:03:10;;;;;;;2.38;2.13;;;;;;;18.77;53.21;100186.09;342459;28;1083;-79
2022/06/17 00:03:23;;;;;;;2.37;2.10;;;;;;;18.79;53.07;100185.13;341666;28;1494;-78
2022/06/17 00:03:36;;;;;;;2.30;2.03;;;;;;;18.79;53.14;100188.66;341427;28;1184;-78
2022/06/17 00:03:54;;;;;;;3.13;1.98;;;;;;;18.80;53.14;100187.72;342052;28;1535;-78
2022/06/17 00:04:06;;;;;;;3.65;2.10;;;;;;;18.81;53.08;100186.78;343581;28;1206;-78
2022/06/17 00:04:18;;;;;;;2.95;2.10;;;;;;;18.80;53.34;100192.16;343436;28;1160;-78
2022/06/17 00:04:31;;;;;;;2.97;2.10;;;;;;;18.81;53.00;100185.94;342100;28;1469;-78
2022/06/17 00:04:43;;;;;;;3.22;2.10;;;;;;;18.82;52.89;100185.00;343188;28;1824;-78
2022/06/17 00:04:55;;;;;;;4.43;2.03;;;;;;;18.82;52.75;100183.22;343214;28;1514;-78
2022/06/17 00:05:08;;;;;;;4.53;2.10;;;;;;;18.84;52.29;100193.66;343492;28;1537;-78
2022/06/17 00:05:21;;;;;;;3.00;2.00;;;;;;;18.84;51.60;100191.03;342661;28;1102;-78
2022/06/17 00:05:33;;;;;;;2.88;2.00;;;;;;;18.83;51.26;100184.06;343417;28;1196;-78
2022/06/17 00:05:46;;;;;;;4.35;2.38;;;;;;;18.81;51.21;100196.47;342903;28;1906;-78
2022/06/17 00:06:00;;;;;;;5.38;2.20;;;;;;;18.77;51.30;100188.72;343371;28;1107;-78
2022/06/17 00:06:12;;;;;;;3.97;1.90;;;;;;;18.77;51.23;100190.47;343330;28;955;-78
2022/06/17 00:06:30;;;;;;;2.90;2.00;;;;;;;18.75;51.24;100193.22;342488;28;1839;-79
2022/06/17 00:06:48;;;;;;;2.35;1.90;;;;;;;18.73;51.54;100189.84;342587;28;1278;-78
2022/06/17 00:07:05;;;;;;;3.20;2.10;;;;;;;18.72;51.47;100195.19;342459;28;1539;-78
2022/06/17 00:07:17;;;;;;;3.20;2.05;;;;;;;18.68;51.47;100197.13;342198;28;1563;-78
2022/06/17 00:07:29;;;;;;;3.08;1.90;;;;;;;18.68;51.57;100191.03;344284;28;1332;-78
2022/06/17 00:07:42;;;;;;;4.55;1.98;;;;;;;18.67;51.79;100194.59;343900;28;2147;-78
2022/06/17 00:07:54;;;;;;;4.82;2.10;;;;;;;18.66;51.56;100193.75;344630;28;1019;-78
2022/06/17 00:08:14;;;;;;;5.03;2.00;;;;;;;18.63;51.63;100193.91;344916;28;1235;-78
2022/06/17 00:08:41;;;;;;;2.83;1.88;;;;;;;18.58;51.77;100195.13;344631;28;1633;-77
2022/06/17 00:08:54;;;;;;;3.47;2.00;;;;;;;18.52;51.81;100196.31;342409;28;1004;-78
2022/06/17 00:09:07;;;;;;;3.83;2.05;;;;;;;18.47;51.91;100187.81;343811;28;1506;-78
2022/06/17 00:09:22;;;;;;;4.68;2.05;;;;;;;18.50;52.32;100192.94;343015;28;1523;-78
2022/06/17 00:09:36;;;;;;;4.85;2.00;;;;;;;18.46;52.27;100191.41;341795;28;1255;-78
2022/06/17 00:09:48;;;;;;;3.42;1.90;;;;;;;18.44;52.17;100188.88;342138;28;1075;-78
2022/06/17 00:10:00;;;;;;;2.17;1.90;;;;;;;18.43;51.98;100202.97;342214;28;1206;-78
2022/06/17 00:10:24;;;;;;;2.13;1.90;;;;;;;18.44;52.46;100193.28;342360;28;1309;-78
2022/06/17 00:10:35;;;;;;;3.78;2.10;;;;;;;18.41;52.29;100186.41;342912;28;1133;-78
2022/06/17 00:10:48;;;;;;;3.63;2.10;;;;;;;18.39;52.35;100192.69;343439;28;1573;-78
2022/06/17 00:11:00;;;;;;;3.70;2.17;;;;;;;18.36;52.70;100188.44;342133;28;1156;-78
2022/06/17 00:11:15;;;;;;;4.80;2.30;;;;;;;18.33;53.70;100185.97;341977;28;1522;-78
2022/06/17 00:11:34;;;;;;;4.75;2.20;;;;;;;18.35;53.28;100187.59;343100;28;992;-78
2022/06/17 00:11:46;;;;;;;4.07;1.92;;;;;;;18.34;52.81;100188.53;342462;28;1481;-78
2022/06/17 00:11:58;;;;;;;4.43;1.95;;;;;;;18.35;53.08;100195.50;342300;28;1106;-78
2022/06/17 00:12:13;;;;;;;3.45;1.90;;;;;;;18.35;53.31;100190.25;342639;28;1054;-78
2022/06/17 00:12:25;;;;;;;3.20;1.90;;;;;;;18.35;52.92;100190.25;341800;28;1666;-78
2022/06/17 00:12:37;;;;;;;2.58;1.88;;;;;;;18.35;52.59;100189.38;342030;28;1733;-78
2022/06/17 00:12:49;;;;;;;2.15;1.95;;;;;;;18.31;52.35;100187.84;341985;28;1044;-78
2022/06/17 00:13:01;;;;;;;2.20;2.00;;;;;;;18.31;52.40;100188.72;341388;28;1434;-78
2022/06/17 00:13:16;;;;;;;3.00;2.05;;;;;;;18.23;52.52;100190.06;341534;28;1487;-78
2022/06/17 00:13:29;;;;;;;2.75;2.10;;;;;;;18.20;52.78;100193.72;341964;28;1172;-78
2022/06/17 00:13:41;;;;;;;2.28;2.00;;;;;;;18.19;52.73;100186.78;341934;28;1807;-78
2022/06/17 00:13:53;;;;;;;2.60;1.90;;;;;;;18.17;53.11;100191.28;342175;28;1487;-78
2022/06/17 00:14:12;;;;;;;2.70;2.00;;;;;;;18.14;53.04;100187.00;342380;28;1103;-78
2022/06/17 00:14:32;;;;;;;2.30;2.05;;;;;;;18.10;53.32;100182.84;342412;28;1071;-78
2022/06/17 00:15:16;;;;;;;5.78;2.22;;;;;;;17.99;54.05;100187.00;342094;28;1032;-78
2022/06/17 00:15:28;;;;;;;3.97;1.90;;;;;;;17.96;54.07;100188.88;342351;28;1131;-78
2022/06/17 00:15:41;;;;;;;2.80;1.92;;;;;;;17.96;54.50;100194.13;342606;28;1228;-78
2022/06/17 00:15:53;;;;;;;2.28;2.00;;;;;;;17.90;54.79;100186.56;342985;28;1292;-78
2022/06/17 00:16:11;;;;;;;2.28;2.00;;;;;;;17.88;54.57;100185.81;342644;28;1353;-78
2022/06/17 00:16:25;;;;;;;2.92;2.00;;;;;;;17.89;54.41;100184.91;342256;28;1074;-78
2022/06/17 00:16:37;;;;;;;3.60;1.92;;;;;;;17.83;54.71;100187.84;342571;28;1079;-78
2022/06/17 00:16:50;;;;;;;3.20;2.00;;;;;;;17.85;54.60;100191.25;342480;28;1060;-78
2022/06/17 00:17:07;;;;;;;3.20;2.03;;;;;;;17.86;54.33;100186.84;342239;28;1135;-78
2022/06/17 00:17:19;;;;;;;2.85;2.20;;;;;;;17.85;54.59;100190.38;343413;28;1035;-78
2022/06/17 00:17:31;;;;;;;2.47;2.20;;;;;;;17.85;54.78;100191.25;343371;28;1447;-78
2022/06/17 00:17:47;;;;;;;3.03;2.15;;;;;;;17.83;55.19;100192.22;341936;28;1641;-78
2022/06/17 00:17:59;;;;;;;3.38;2.10;;;;;;;17.80;55.23;100181.88;342091;28;1604;-78
2022/06/17 00:18:15;;;;;;;3.58;2.17;;;;;;;17.82;55.00;100186.13;343311;28;1231;-77
2022/06/17 00:18:27;;;;;;;3.28;2.15;;;;;;;17.83;54.74;100187.84;341174;28;1404;-78
2022/06/17 00:18:40;;;;;;;2.45;2.08;;;;;;;17.83;55.16;100187.84;341135;28;1385;-78
2022/06/17 00:18:53;;;;;;;2.40;2.00;;;;;;;17.86;54.98;100190.31;339619;29;1134;-78
2022/06/17 00:19:05;;;;;;;2.63;1.90;;;;;;;17.85;55.90;100188.63;340414;28;1832;-78
2022/06/17 00:19:18;;;;;;;2.80;1.95;;;;;;;17.87;55.48;100183.28;341975;28;1413;-78
2022/06/17 00:19:30;;;;;;;2.20;1.98;;;;;;;17.88;55.07;100185.81;341488;28;1878;-78
2022/06/17 00:19:42;;;;;;;2.33;1.98;;;;;;;17.89;54.73;100187.53;342025;28;1621;-78
2022/06/17 00:19:54;;;;;;;3.20;2.00;;;;;;;17.91;54.55;100184.81;342347;28;1207;-78
2022/06/17 00:20:10;;;;;;;3.38;2.10;;;;;;;17.92;54.10;100179.44;342437;28;1067;-78
2022/06/17 00:20:24;;;;;;;2.83;2.10;;;;;;;17.93;53.93;100183.78;341748;28;1530;-77
2022/06/17 00:20:36;;;;;;;3.08;2.08;;;;;;;17.94;53.88;100185.47;342192;28;1428;-78
2022/06/17 00:20:49;;;;;;;3.65;2.00;;;;;;;17.95;54.53;100179.28;342337;28;1102;-78
2022/06/17 00:21:02;;;;;;;4.78;2.03;;;;;;;17.99;54.51;100181.75;343480;28;1123;-78
2022/06/17 00:21:36;;;;;;;4.93;2.08;;;;;;;18.01;55.08;100190.41;342941;28;1697;-78
2022/06/17 00:21:52;;;;;;;3.30;1.90;;;;;;;18.02;54.76;100181.59;342281;28;1115;-78
2022/06/17 00:22:04;;;;;;;2.10;1.90;;;;;;;18.05;54.79;100189.28;341810;28;1916;-78
2022/06/17 00:22:16;;;;;;;2.13;1.92;;;;;;;18.06;54.68;100188.38;341529;28;1717;-78
2022/06/17 00:22:28;;;;;;;2.35;1.90;;;;;;;18.07;54.03;100187.44;341435;28;1083;-78
2022/06/17 00:22:43;;;;;;;2.67;1.80;;;;;;;18.08;54.16;100189.97;341694;28;1828;-78
2022/06/17 00:22:55;;;;;;;4.05;1.90;;;;;;;18.10;54.27;100189.91;342083;28;1378;-78
2022/06/17 00:23:19;;;;;;;4.25;1.98;;;;;;;18.11;54.33;100186.31;342130;28;1707;-78
2022/06/17 00:23:31;;;;;;;2.60;2.20;;;;;;;18.26;54.06;100188.13;342628;28;1373;-78
2022/06/17 00:23:43;;;;;;;2.63;2.10;;;;;;;18.29;54.38;100189.72;342379;28;1567;-78
2022/06/17 00:23:55;;;;;;;2.67;2.10;;;;;;;18.32;54.50;100185.13;342818;28;1761;-78
2022/06/17 00:24:30;;;;;;;2.53;2.05;;;;;;;18.38;54.75;100191.00;342140;28;1087;-78
2022/06/17 00:24:42;;;;;;;3.40;2.20;;;;;;;18.25;54.86;100196.97;341389;28;1813;-78
2022/06/17 00:24:54;;;;;;;2.95;2.10;;;;;;;18.23;54.71;100190.94;340653;28;1579;-78
2022/06/17 00:25:23;;;;;;;2.35;2.00;;;;;;;18.21;54.52;100192.81;340821;29;1193;-78
2022/06/17 00:25:36;;;;;;;4.07;2.20;;;;;;;18.23;54.87;100196.19;341794;28;1231;-78
2022/06/17 00:25:49;;;;;;;4.25;2.30;;;;;;;18.21;55.23;100198.06;342675;28;1505;-78
2022/06/17 00:26:01;;;;;;;3.17;2.20;;;;;;;18.22;55.31;100191.84;343541;28;1062;-78
2022/06/17 00:26:13;;;;;;;3.72;2.20;;;;;;;18.24;54.67;100202.28;343569;28;1069;-78
2022/06/17 00:26:25;;;;;;;3.88;2.10;;;;;;;18.23;54.24;100196.19;343514;28;1217;-78
2022/06/17 00:26:37;;;;;;;3.10;2.00;;;;;;;18.24;54.34;100202.28;343452;28;1747;-78
2022/06/17 00:26:50;;;;;;;2.22;2.03;;;;;;;18.24;53.71;100199.66;343192;28;1400;-78
2022/06/17 00:27:03;;;;;;;2.88;2.17;;;;;;;18.23;53.28;100196.19;343405;28;1051;-78
2022/06/17 00:27:15;;;;;;;2.80;2.10;;;;;;;18.22;53.22;100199.75;343535;28;1095;-78
2022/06/17 00:27:27;;;;;;;2.67;2.20;;;;;;;18.19;53.32;100194.66;342654;28;1647;-78
2022/06/17 00:27:39;;;;;;;2.63;2.10;;;;;;;18.17;53.37;100196.53;343609;28;2032;-78
2022/06/17 00:27:51;;;;;;;2.95;2.00;;;;;;;18.17;54.04;100196.53;343418;28;1098;-78
2022/06/17 00:28:10;;;;;;;4.00;2.25;;;;;;;18.10;54.04;100200.44;343222;28;1020;-78
2022/06/17 00:28:23;;;;;;;5.55;2.50;;;;;;;18.10;54.51;100201.25;343397;28;1201;-78
2022/06/17 00:28:35;;;;;;;3.63;2.30;;;;;;;18.08;54.47;100194.41;342231;28;1811;-78
2022/06/17 00:28:48;;;;;;;2.63;2.20;;;;;;;18.09;53.92;100203.97;343622;28;2050;-78
2022/06/17 00:29:00;;;;;;;2.63;2.20;;;;;;;18.08;53.93;100202.28;343541;28;1550;-78
2022/06/17 00:29:14;;;;;;;2.53;2.10;;;;;;;18.07;53.67;100200.59;342677;28;1273;-78
2022/06/17 00:29:29;;;;;;;2.85;2.20;;;;;;;18.05;53.55;100202.44;342248;28;1329;-77
2022/06/17 00:29:41;;;;;;;3.15;2.45;;;;;;;18.05;54.55;100197.19;342998;28;2258;-78
2022/06/17 00:29:53;;;;;;;2.70;2.45;;;;;;;18.08;54.35;100194.41;343502;28;1087;-78
2022/06/17 00:30:14;;;;;;;2.75;2.28;;;;;;;18.11;54.18;100197.72;343280;28;1091;-78
2022/06/17 00:30:30;;;;;;;3.92;2.20;;;;;;;18.08;55.16;100203.13;343233;28;1365;-78
2022/06/17 00:30:42;;;;;;;3.70;2.30;;;;;;;18.06;54.63;100201.53;342024;28;1325;-78
2022/06/17 00:30:54;;;;;;;2.58;2.20;;;;;;;18.04;54.25;100203.41;342052;28;1256;-78
2022/06/17 00:31:06;;;;;;;3.45;2.25;;;;;;;18.01;54.75;100201.78;342226;28;1332;-78
2022/06/17 00:31:19;;;;;;;4.40;2.38;;;;;;;17.99;55.36;100202.78;342885;28;1811;-78
2022/06/17 00:31:32;;;;;;;3.60;2.33;;;;;;;17.98;54.80;100201.09;342577;28;1846;-78
2022/06/17 00:31:44;;;;;;;2.72;2.13;;;;;;;17.95;54.77;100202.97;343271;28;1593;-78
2022/06/17 00:31:58;;;;;;;5.57;2.30;;;;;;;17.93;54.54;100204.84;343264;28;1101;-78
2022/06/17 00:32:10;;;;;;;5.68;2.25;;;;;;;17.93;54.20;100202.22;343299;28;1063;-78
2022/06/17 00:32:22;;;;;;;3.30;2.10;;;;;;;17.91;54.05;100204.06;341993;28;969;-77
2022/06/17 00:32:34;;;;;;;3.03;2.00;;;;;;;17.93;54.20;100210.09;340853;29;1960;-77
2022/06/17 00:32:47;;;;;;;2.72;2.10;;;;;;;17.94;54.34;100203.88;341932;28;1546;-78
2022/06/17 00:33:02;;;;;;;2.63;2.20;;;;;;;17.98;54.55;100206.38;342991;28;1313;-77
2022/06/17 00:33:15;;;;;;;2.30;2.10;;;;;;;18.00;54.62;100209.75;342043;28;1173;-77
2022/06/17 00:33:27;;;;;;;2.10;1.90;;;;;;;18.02;54.22;100207.91;340983;28;1437;-77
2022/06/17 00:33:39;;;;;;;2.15;1.90;;;;;;;18.04;54.40;100213.91;341601;28;1950;-77
2022/06/17 00:33:51;;;;;;;2.20;2.00;;;;;;;18.05;54.19;100210.34;341970;28;1596;-78
2022/06/17 00:34:04;;;;;;;2.45;2.10;;;;;;;18.05;54.01;100207.72;341988;28;1155;-78
2022/06/17 00:34:16;;;;;;;2.58;2.13;;;;;;;18.05;53.81;100207.72;342188;28;1102;-78
2022/06/17 00:34:28;;;;;;;3.47;2.25;;;;;;;18.05;54.28;100212.97;342723;28;1279;-78
2022/06/17 00:34:40;;;;;;;3.20;2.30;;;;;;;18.05;54.45;100208.59;343121;28;1384;-78
2022/06/17 00:34:52;;;;;;;2.47;2.10;;;;;;;18.06;54.08;100209.41;343034;28;1030;-78
2022/06/17 00:35:05;;;;;;;2.30;2.10;;;;;;;18.08;54.50;100215.44;343287;28;1055;-78
2022/06/17 00:35:17;;;;;;;2.80;2.22;;;;;;;18.06;55.13;100209.41;343266;28;1118;-78
2022/06/17 00:35:32;;;;;;;3.65;2.30;;;;;;;18.03;55.14;100209.56;343822;28;1137;-77
2022/06/17 00:35:54;;;;;;;3.92;2.20;;;;;;;18.05;54.71;100212.97;343318;28;2081;-77
2022/06/17 00:36:09;;;;;;;2.15;1.92;;;;;;;18.06;54.66;100215.53;342864;28;1471;-77
2022/06/17 00:36:21;;;;;;;2.65;2.17;;;;;;;18.07;54.23;100211.09;342405;28;1291;-77
2022/06/17 00:36:34;;;;;;;3.58;2.30;;;;;;;18.06;54.70;100212.06;342971;28;1376;-77
2022/06/17 00:36:46;;;;;;;4.13;2.38;;;;;;;18.05;54.72;100207.72;343010;28;1943;-77
2022/06/17 00:37:00;;;;;;;4.03;2.40;;;;;;;18.03;55.47;100215.72;341717;28;4544;-78
2022/06/17 00:37:14;;;;;;;3.78;2.40;;;;;;;18.04;55.00;100211.28;343133;28;4699;-78
2022/06/17 00:37:26;;;;;;;3.25;2.30;;;;;;;18.02;55.13;100218.41;343202;28;1080;-78
2022/06/17 00:37:42;;;;;;;3.20;2.30;;;;;;;18.03;55.37;100214.84;343214;28;1098;-78
2022/06/17 00:37:54;;;;;;;2.80;2.20;;;;;;;18.02;55.22;100214.00;343340;28;1106;-78
2022/06/17 00:38:11;;;;;;;2.65;2.20;;;;;;;18.04;54.90;100206.03;343422;28;1100;-78
2022/06/17 00:38:28;;;;;;;3.67;2.20;;;;;;;18.06;55.21;100219.94;342317;28;1077;-79
2022/06/17 00:38:40;;;;;;;3.70;2.00;;;;;;;18.08;55.17;100212.81;342094;28;1172;-78
2022/06/17 00:38:52;;;;;;;3.17;1.98;;;;;;;18.08;55.11;100210.19;342126;28;1093;-78
2022/06/17 00:39:17;;;;;;;2.47;2.03;;;;;;;18.08;54.56;100218.06;342220;28;1035;-78
2022/06/17 00:39:33;;;;;;;3.13;2.20;;;;;;;18.06;54.80;100209.41;342047;28;1681;-78
2022/06/17 00:39:45;;;;;;;3.63;2.17;;;;;;;18.07;55.19;100213.72;343222;28;1474;-78
2022/06/17 00:39:57;;;;;;;3.28;2.10;;;;;;;18.04;54.94;100216.56;343024;28;1071;-78
2022/06/17 00:40:21;;;;;;;2.80;2.20;;;;;;;18.04;55.36;100214.75;343572;28;1280;-77
2022/06/17 00:40:35;;;;;;;2.60;2.13;;;;;;;18.03;55.46;100209.56;343494;28;1125;-77
2022/06/17 00:40:47;;;;;;;2.28;2.08;;;;;;;18.02;55.32;100214.00;343848;28;1240;-77
2022/06/17 00:41:12;;;;;;;2.20;2.00;;;;;;;18.02;55.19;100213.16;343837;28;1031;-77
2022/06/17 00:41:33;;;;;;;2.30;2.10;;;;;;;18.00;55.41;100215.84;342478;28;1604;-77
2022/06/17 00:41:50;;;;;;;3.05;2.13;;;;;;;18.01;55.11;100211.44;343276;28;1359;-78
2022/06/17 00:42:13;;;;;;;2.67;2.13;;;;;;;18.02;55.10;100213.16;342512;28;1192;-77
2022/06/17 00:42:27;;;;;;;3.03;2.10;;;;;;;18.03;55.01;100217.47;342620;28;1238;-78
2022/06/17 00:42:40;;;;;;;3.22;2.20;;;;;;;18.00;54.92;100215.03;343613;28;1195;-78
2022/06/17 00:42:53;;;;;;;3.78;2.30;;;;;;;18.01;54.60;100219.34;343810;28;1050;-79
2022/06/17 00:43:13;;;;;;;3.78;2.20;;;;;;;18.03;54.47;100214.84;343555;28;1509;-78
2022/06/17 00:43:34;;;;;;;2.85;2.10;;;;;;;18.05;54.63;100212.97;343339;28;1166;-78
2022/06/17 00:43:46;;;;;;;2.85;2.20;;;;;;;18.04;55.02;100208.66;342203;28;1058;-78
2022/06/17 00:44:23;;;;;;;2.55;2.25;;;;;;;18.06;54.87;100214.69;342353;28;1035;-78
2022/06/17 00:44:38;;;;;;;2.53;2.10;;;;;;;18.06;54.38;100209.41;340889;29;1059;-78
2022/06/17 00:45:04;;;;;;;2.65;2.13;;;;;;;18.07;54.59;100211.09;341873;28;1535;-78
2022/06/17 00:45:28;;;;;;;3.72;2.13;;;;;;;18.08;54.67;100212.81;341880;28;1821;-78
2022/06/17 00:45:51;;;;;;;2.60;2.22;;;;;;;18.08;54.88;100213.66;341116;28;1924;-78
2022/06/17 00:46:14;;;;;;;2.63;2.25;;;;;;;18.09;54.61;100210.13;340836;29;963;-78
2022/06/17 00:46:44;;;;;;;3.30;2.10;;;;;;;18.07;55.05;100213.72;342104;28;1144;-78
2022/06/17 00:46:59;;;;;;;2.95;2.20;;;;;;;18.04;55.56;100212.13;342381;28;1188;-77
2022/06/17 00:47:26;;;;;;;2.83;2.20;;;;;;;18.03;55.22;100214.84;342874;28;1887;-78
2022/06/17 00:47:48;;;;;;;5.10;2.10;;;;;;;18.02;55.48;100206.09;343523;28;1754;-78
2022/06/17 00:48:26;;;;;;;3.42;2.15;;;;;;;18.03;55.11;100204.31;343612;28;1732;-78
2022/06/17 00:48:46;;;;;;;3.05;2.25;;;;;;;18.04;54.99;100206.03;342517;28;2254;-78
2022/06/17 00:49:04;;;;;;;5.95;2.35;;;;;;;18.03;55.29;100206.94;342820;28;1155;-78
2022/06/17 00:49:24;;;;;;;7.03;2.40;;;;;;;18.01;55.37;100206.19;343513;28;1747;-78
2022/06/17 00:49:45;;;;;;;3.70;2.35;;;;;;;17.99;55.25;100208.03;343043;28;1784;-77
2022/06/17 00:50:20;;;;;;;3.10;2.20;;;;;;;17.96;55.44;100206.44;342480;28;1157;-77
2022/06/17 00:50:59;;;;;;;4.35;2.00;;;;;;;17.93;55.90;100204.84;342691;28;1699;-78
2022/06/17 00:51:24;;;;;;;4.40;2.22;;;;;;;17.90;56.69;100202.34;343336;28;1106;-78
2022/06/17 00:52:02;;;;;;;2.63;2.30;;;;;;;17.91;56.55;100214.59;343834;28;1101;-78
2022/06/17 00:52:23;;;;;;;3.33;2.13;;;;;;;17.93;55.81;100210.09;343706;28;1175;-78
2022/06/17 00:52:52;;;;;;;2.80;2.10;;;;;;;17.92;56.61;100207.53;343186;28;2498;-78
2022/06/17 00:53:20;;;;;;;2.67;2.08;;;;;;;17.94;55.74;100205.69;342582;28;1380;-78
2022/06/17 00:53:40;;;;;;;4.63;2.20;;;;;;;17.93;55.39;100207.47;343413;28;1089;-78
2022/06/17 00:53:58;;;;;;;2.92;2.20;;;;;;;17.93;56.20;100209.25;342160;28;2065;-78
2022/06/17 00:54:21;;;;;;;4.10;2.30;;;;;;;17.94;55.75;100211.78;342215;28;1157;-78
2022/06/17 00:54:50;;;;;;;3.88;2.20;;;;;;;17.94;56.01;100211.78;343871;28;1247;-78
2022/06/17 00:55:16;;;;;;;5.85;2.30;;;;;;;17.93;55.95;100217.97;342783;28;1431;-77
2022/06/17 00:55:44;;;;;;;4.90;2.30;;;;;;;17.93;56.46;100210.09;342853;28;1755;-78
2022/06/17 00:55:59;;;;;;;3.53;2.30;;;;;;;17.93;56.21;100210.09;344700;28;1043;-78
2022/06/17 00:56:18;;;;;;;3.20;2.00;;;;;;;17.95;56.35;100210.03;343072;28;1172;-78
2022/06/17 00:56:35;;;;;;;4.43;2.22;;;;;;;17.94;56.43;100211.78;343340;28;1026;-78
2022/06/17 00:56:47;;;;;;;4.40;2.22;;;;;;;17.95;56.21;100208.22;343400;28;1872;-78
2022/06/17 00:56:59;;;;;;;3.22;2.15;;;;;;;17.96;56.45;100209.06;342286;28;4734;-78
2022/06/17 00:57:17;;;;;;;4.78;2.17;;;;;;;17.93;56.20;100204.84;343056;28;4503;-78
2022/06/17 00:57:29;;;;;;;6.05;2.45;;;;;;;17.91;56.29;100201.44;343736;28;1098;-78
2022/06/17 00:57:41;;;;;;;4.18;2.50;;;;;;;17.89;55.77;100200.69;343767;28;4622;-78
2022/06/17 00:57:53;;;;;;;3.17;2.55;;;;;;;17.86;55.47;100200.81;343744;28;1023;-78
2022/06/17 00:58:19;;;;;;;3.45;2.50;;;;;;;17.85;55.44;100200.91;343596;28;1184;-78
2022/06/17 00:58:53;;;;;;;3.35;2.40;;;;;;;17.84;55.55;100202.69;343328;28;1647;-78
2022/06/17 00:59:10;;;;;;;3.95;2.50;;;;;;;17.87;56.35;100202.53;342950;28;1904;-78
2022/06/17 00:59:25;;;;;;;3.70;2.47;;;;;;;17.84;56.78;100200.06;342363;28;1039;-78
2022/06/17 00:59:37;;;;;;;4.47;2.60;;;;;;;17.85;56.06;100212.28;341402;28;1816;-78
2022/06/17 01:00:10;;;;;;;5.25;2.70;;;;;;;17.83;56.19;100197.47;342149;28;1079;-77
2022/06/17 01:00:24;;;;;;;3.47;2.40;;;;;;;17.82;56.00;100201.88;342008;28;1011;-78
2022/06/17 01:00:37;;;;;;;4.00;2.40;;;;;;;17.82;55.77;100209.78;340992;29;880;-78
2022/06/17 01:00:53;;;;;;;3.78;2.42;;;;;;;17.81;56.29;100205.47;343396;28;1217;-78
2022/06/17 01:01:10;;;;;;;3.05;2.50;;;;;;;17.80;56.08;100209.00;341214;29;1233;-78
2022/06/17 01:01:23;;;;;;;3.63;2.53;;;;;;;17.79;56.58;100207.34;341219;28;1039;-78
2022/06/17 01:01:38;;;;;;;4.50;2.40;;;;;;;17.78;56.39;100200.34;342786;28;1900;-78
2022/06/17 01:02:01;;;;;;;4.05;2.35;;;;;;;17.77;56.43;100204.78;343831;28;880;-78
2022/06/17 01:02:14;;;;;;;3.60;2.35;;;;;;;17.75;56.86;100200.53;343430;28;1015;-78
2022/06/17 01:02:33;;;;;;;2.63;2.38;;;;;;;17.73;57.00;100202.41;342246;28;2174;-78
2022/06/17 01:02:51;;;;;;;2.67;2.30;;;;;;;17.74;56.14;100206.72;341782;28;1083;-78
2022/06/17 01:03:08;;;;;;;3.20;2.50;;;;;;;17.74;56.50;100198.81;342674;28;1461;-78
2022/06/17 01:03:25;;;;;;;2.95;2.50;;;;;;;17.77;56.00;100203.94;343220;28;1239;-78
2022/06/17 01:03:37;;;;;;;2.90;2.40;;;;;;;17.77;56.34;100199.50;342047;28;1003;-78
2022/06/17 01:03:53;;;;;;;3.47;2.42;;;;;;;17.80;56.34;100203.75;342150;28;1925;-78
2022/06/17 01:04:09;;;;;;;3.72;2.50;;;;;;;17.83;56.08;100197.47;342305;28;1944;-78
2022/06/17 01:04:25;;;;;;;3.47;2.40;;;;;;;17.86;55.84;100197.34;342127;28;1184;-78
2022/06/17 01:04:42;;;;;;;3.20;2.30;;;;;;;17.85;56.36;100195.63;342283;28;1147;-78
2022/06/17 01:04:54;;;;;;;3.17;2.30;;;;;;;17.83;56.56;100195.75;342588;28;1759;-78
2022/06/17 01:05:07;;;;;;;4.13;2.55;;;;;;;17.83;56.84;100193.13;343129;28;1842;-78
2022/06/17 01:05:23;;;;;;;4.10;2.50;;;;;;;17.82;56.63;100194.00;343367;28;1247;-78
2022/06/17 01:06:04;;;;;;;3.15;2.38;;;;;;;17.80;56.51;100187.13;343807;28;1413;-78
2022/06/17 01:06:19;;;;;;;3.05;2.20;;;;;;;17.78;56.43;100188.06;341965;28;1052;-78
2022/06/17 01:06:37;;;;;;;3.97;2.25;;;;;;;17.79;56.78;100191.56;343440;28;1204;-78
2022/06/17 01:07:13;;;;;;;4.53;2.28;;;;;;;17.78;56.93;100189.84;343613;28;1548;-78
2022/06/17 01:07:31;;;;;;;3.42;2.50;;;;;;;17.73;56.90;100187.47;343355;28;1057;-78
2022/06/17 01:07:49;;;;;;;3.35;2.50;;;;;;;17.75;56.53;100187.41;342459;28;1209;-78
2022/06/17 01:10:11;;;;;;;3.28;2.53;;;;;;;17.75;55.82;100179.50;343444;28;1298;-76
2022/06/17 01:10:24;;;;;;;3.22;2.55;;;;;;;17.75;55.47;100179.50;342640;28;1894;-76
2022/06/17 01:10:44;;;;;;;4.90;2.40;;;;;;;17.75;55.23;100179.50;343355;28;1852;-76
2022/06/17 01:10:56;;;;;;;5.43;2.30;;;;;;;17.77;55.34;100182.91;342326;28;908;-76
2022/06/17 01:11:11;;;;;;;4.47;2.30;;;;;;;17.77;55.62;100182.91;342290;28;1035;-76
2022/06/17 01:11:25;;;;;;;3.40;2.30;;;;;;;17.77;55.47;100178.47;341899;28;1076;-76
2022/06/17 01:11:39;;;;;;;4.20;2.50;;;;;;;17.78;55.87;100184.59;343376;28;1198;-76
2022/06/17 01:11:53;;;;;;;5.05;2.60;;;;;;;17.77;56.16;100182.91;343471;28;2043;-76
2022/06/17 01:12:10;;;;;;;4.40;2.60;;;;;;;17.77;56.02;100189.00;343463;28;1225;-76
2022/06/17 01:12:27;;;;;;;4.50;2.67;;;;;;;17.77;55.96;100177.63;342972;28;1411;-76
2022/06/17 01:12:48;;;;;;;4.40;2.70;;;;;;;17.77;55.72;100181.13;343111;28;1033;-76
2022/06/17 01:13:05;;;;;;;3.00;2.60;;;;;;;17.78;55.66;100182.78;343177;28;1911;-76
2022/06/17 01:13:17;;;;;;;2.70;2.50;;;;;;;17.79;55.87;100183.66;343817;28;1050;-76
2022/06/17 01:13:29;;;;;;;2.80;2.30;;;;;;;17.75;56.08;100180.34;342214;28;3707;-77
2022/06/17 01:13:47;;;;;;;3.70;2.40;;;;;;;17.72;56.37;100174.41;342452;28;8036;-76
2022/06/17 01:14:00;;;;;;;3.38;2.30;;;;;;;17.71;56.02;100183.22;342099;28;1190;-77
2022/06/17 01:14:15;;;;;;;2.97;2.30;;;;;;;17.71;56.04;100183.22;343383;28;3573;-77
2022/06/17 01:14:29;;;;;;;3.58;2.35;;;;;;;17.70;56.22;100181.53;342453;28;1087;-77
2022/06/17 01:14:42;;;;;;;4.03;2.45;;;;;;;17.71;56.58;100183.22;343499;28;1043;-76
2022/06/17 01:14:56;;;;;;;3.25;2.40;;;;;;;17.68;56.56;100181.59;342330;28;1277;-77
2022/06/17 01:15:09;;;;;;;3.50;2.40;;;;;;;17.67;56.69;100181.69;342092;28;1384;-77
2022/06/17 01:15:24;;;;;;;3.60;2.47;;;;;;;17.67;56.84;100177.28;343320;28;1205;-77
2022/06/17 01:15:39;;;;;;;2.92;2.50;;;;;;;17.67;56.90;100185.16;341590;28;3295;-76
2022/06/17 01:15:51;;;;;;;2.60;2.40;;;;;;;17.65;56.75;100178.31;342850;28;1418;-76
2022/06/17 01:16:04;;;;;;;2.92;2.58;;;;;;;17.65;56.72;100173.03;342954;28;1487;-77
2022/06/17 01:16:21;;;;;;;3.08;2.50;;;;;;;17.64;56.67;100176.59;341990;28;1023;-76
2022/06/17 01:16:36;;;;;;;2.80;2.35;;;;;;;17.65;56.64;100175.69;343153;28;1720;-76
2022/06/17 01:16:50;;;;;;;2.63;2.40;;;;;;;17.65;56.58;100176.50;342893;28;1751;-76
2022/06/17 01:17:03;;;;;;;2.65;2.42;;;;;;;17.62;56.05;100176.66;343516;28;1027;-76
2022/06/17 01:17:18;;;;;;;2.65;2.45;;;;;;;17.64;56.05;100173.97;345038;28;1076;-76
2022/06/17 01:17:32;;;;;;;2.78;2.50;;;;;;;17.66;55.85;100178.19;344337;28;1594;-76
2022/06/17 01:17:46;;;;;;;4.97;2.58;;;;;;;17.66;55.92;100180.81;344722;28;1087;-77
2022/06/17 01:17:58;;;;;;;6.18;2.50;;;;;;;17.67;55.69;100176.44;344763;28;1194;-77
2022/06/17 01:18:12;;;;;;;4.60;2.50;;;;;;;17.68;55.72;100172.88;343545;28;1199;-77